createdAt,value
2022-10-28T00:00:05.752Z,9.09
2022-10-28T00:01:23.950Z,8.99
2022-10-28T00:02:20.742Z,8.94
2022-10-28T00:03:18.462Z,9.00
2022-10-28T00:04:15.018Z,8.96
2022-10-28T00:05:11.628Z,8.94
2022-10-28T00:06:12.027Z,9.04
2022-10-28T00:07:08.629Z,8.96
2022-10-28T00:08:05.474Z,8.94
2022-10-28T00:09:05.604Z,9.13
2022-10-28T00:10:05.397Z,9.02
2022-10-28T00:11:05.951Z,8.94
2022-10-28T00:12:02.614Z,8.93
2022-10-28T00:12:59.188Z,9.05
2022-10-28T00:13:57.658Z,8.36
2022-10-28T00:14:54.324Z,8.84
2022-10-28T00:15:50.901Z,8.74
2022-10-28T00:16:47.638Z,8.73
2022-10-28T00:17:44.226Z,8.76
2022-10-28T00:18:41.534Z,8.60
2022-10-28T00:19:38.078Z,8.50
2022-10-28T00:20:34.648Z,8.79
2022-10-28T00:21:34.184Z,8.64
2022-10-28T00:22:30.740Z,8.64
2022-10-28T00:23:27.307Z,8.84
2022-10-28T00:24:23.937Z,8.85
2022-10-28T00:25:24.856Z,8.66
2022-10-28T00:26:27.889Z,8.50
2022-10-28T00:27:24.469Z,8.56
2022-10-28T00:28:21.133Z,8.46
2022-10-28T00:29:19.696Z,8.28
2022-10-28T00:30:16.395Z,8.29
2022-10-28T00:31:15.407Z,8.47
2022-10-28T00:32:12.062Z,8.36
2022-10-28T00:33:08.666Z,8.39
2022-10-28T00:34:08.004Z,8.21
2022-10-28T00:35:05.116Z,8.36
2022-10-28T00:36:19.670Z,7.79
2022-10-28T00:37:16.240Z,8.26
2022-10-28T00:38:12.812Z,8.24
2022-10-28T00:39:16.782Z,8.11
2022-10-28T00:40:13.346Z,8.09
2022-10-28T00:41:12.310Z,8.06
2022-10-28T00:42:10.772Z,8.32
2022-10-28T00:43:11.709Z,8.64
2022-10-28T00:44:45.492Z,8.65
2022-10-28T00:45:42.095Z,8.31
2022-10-28T00:46:44.313Z,8.30
2022-10-28T00:47:46.196Z,8.33
2022-10-28T00:48:45.536Z,8.46
2022-10-28T00:49:43.340Z,8.45
2022-10-28T00:50:47.352Z,8.48
2022-10-28T00:51:47.268Z,8.39
2022-10-28T00:52:49.473Z,8.20
2022-10-28T00:53:48.271Z,8.27
2022-10-28T00:54:45.936Z,7.96
2022-10-28T00:55:44.484Z,7.97
2022-10-28T00:56:46.612Z,8.18
2022-10-28T00:57:44.673Z,8.24
2022-10-28T00:58:41.796Z,8.13
2022-10-28T00:59:43.891Z,8.12
2022-10-28T01:00:40.901Z,8.20
2022-10-28T01:01:37.709Z,8.20
2022-10-28T01:02:43.528Z,8.13
2022-10-28T01:03:40.210Z,8.13
2022-10-28T01:04:36.830Z,8.02
2022-10-28T01:05:36.278Z,7.91
2022-10-28T01:06:32.868Z,7.84
2022-10-28T01:07:30.452Z,7.96
2022-10-28T01:08:27.027Z,8.12
2022-10-28T01:10:28.802Z,8.02
2022-10-28T01:11:43.493Z,7.76
2022-10-28T01:13:01.208Z,7.70
2022-10-28T01:14:03.789Z,7.79
2022-10-28T01:15:19.254Z,8.12
2022-10-28T01:16:34.704Z,8.30
2022-10-28T01:17:57.871Z,8.63
2022-10-28T01:19:15.861Z,8.42
2022-10-28T01:20:28.461Z,8.41
2022-10-28T01:21:24.968Z,8.45
2022-10-28T01:23:49.447Z,8.01
2022-10-28T01:24:54.703Z,8.05
2022-10-28T01:26:26.261Z,7.83
2022-10-28T01:27:34.734Z,8.42
2022-10-28T01:28:58.970Z,8.59
2022-10-28T01:30:15.017Z,8.09
2022-10-28T01:31:29.918Z,8.24
2022-10-28T01:32:35.380Z,8.19
2022-10-28T01:34:08.752Z,8.06
2022-10-28T01:35:05.293Z,8.10
2022-10-28T01:36:13.529Z,8.11
2022-10-28T01:37:19.240Z,8.54
2022-10-28T01:38:28.829Z,8.67
2022-10-28T01:39:57.734Z,8.24
2022-10-28T01:40:54.258Z,8.13
2022-10-28T01:42:06.235Z,8.09
2022-10-28T01:43:31.172Z,7.65
2022-10-28T01:44:34.274Z,7.97
2022-10-28T01:46:00.295Z,7.83
2022-10-28T01:47:04.472Z,7.89
2022-10-28T01:48:03.557Z,7.90
2022-10-28T01:49:08.240Z,7.89
2022-10-28T01:50:14.046Z,7.82
2022-10-28T01:51:26.529Z,7.49
2022-10-28T01:52:28.124Z,7.70
2022-10-28T01:53:30.298Z,7.41
2022-10-28T01:54:32.283Z,7.77
2022-10-28T01:55:36.331Z,8.04
2022-10-28T01:56:40.302Z,8.29
2022-10-28T01:57:39.962Z,8.21
2022-10-28T01:58:38.997Z,8.11
2022-10-28T01:59:36.999Z,7.77
2022-10-28T02:00:35.946Z,7.47
2022-10-28T02:01:33.104Z,7.51
2022-10-28T02:02:33.826Z,7.45
2022-10-28T02:03:30.580Z,7.59
2022-10-28T02:04:27.173Z,7.84
2022-10-28T02:05:41.779Z,7.94
2022-10-28T02:06:40.273Z,7.52
2022-10-28T02:07:37.795Z,7.54
2022-10-28T02:08:55.148Z,7.69
2022-10-28T02:10:13.475Z,7.63
2022-10-28T02:11:22.066Z,7.49
2022-10-28T02:12:23.835Z,7.41
2022-10-28T02:13:24.907Z,7.37
2022-10-28T02:14:40.080Z,7.49
2022-10-28T02:15:46.269Z,7.60
2022-10-28T02:16:51.609Z,7.38
2022-10-28T02:17:54.329Z,7.39
2022-10-28T02:19:00.017Z,7.70
2022-10-28T02:20:18.168Z,8.30
2022-10-28T02:21:20.275Z,8.07
2022-10-28T02:22:27.479Z,7.57
2022-10-28T02:23:38.948Z,7.28
2022-10-28T02:24:54.631Z,7.12
2022-10-28T02:26:19.956Z,7.80
2022-10-28T02:27:48.780Z,7.56
2022-10-28T02:29:14.552Z,7.07
2022-10-28T02:30:45.555Z,7.74
2022-10-28T02:31:58.297Z,8.04
2022-10-28T02:33:01.709Z,7.53
2022-10-28T02:34:03.979Z,7.23
2022-10-28T02:35:03.379Z,7.11
2022-10-28T02:36:12.573Z,7.07
2022-10-28T02:37:16.386Z,6.93
2022-10-28T02:38:19.699Z,6.43
2022-10-28T02:39:20.740Z,6.84
2022-10-28T02:40:26.447Z,7.02
2022-10-28T02:41:22.985Z,6.96
2022-10-28T02:42:29.373Z,6.82
2022-10-28T02:43:28.143Z,6.73
2022-10-28T02:44:35.767Z,6.84
2022-10-28T02:45:37.814Z,6.87
2022-10-28T02:46:38.997Z,6.84
2022-10-28T02:47:40.582Z,6.91
2022-10-28T02:48:43.503Z,7.10
2022-10-28T02:49:43.699Z,6.95
2022-10-28T02:50:45.854Z,6.81
2022-10-28T02:51:52.449Z,6.73
2022-10-28T02:52:53.611Z,6.81
2022-10-28T02:54:09.236Z,6.84
2022-10-28T02:55:06.599Z,6.54
2022-10-28T02:56:05.962Z,6.84
2022-10-28T02:57:06.327Z,6.74
2022-10-28T02:58:03.299Z,6.58
2022-10-28T02:58:59.869Z,6.95
2022-10-28T02:59:59.087Z,6.88
2022-10-28T03:00:55.759Z,6.84
2022-10-28T03:01:52.707Z,6.91
2022-10-28T03:02:49.371Z,6.91
2022-10-28T03:03:46.329Z,7.00
2022-10-28T03:04:42.897Z,7.03
2022-10-28T03:05:39.655Z,6.85
2022-10-28T03:06:36.212Z,6.95
2022-10-28T03:07:32.878Z,6.98
2022-10-28T03:08:29.426Z,7.02
2022-10-28T03:09:25.996Z,6.82
2022-10-28T03:10:23.006Z,6.93
2022-10-28T03:11:20.223Z,6.87
2022-10-28T03:12:17.019Z,6.68
2022-10-28T03:13:13.657Z,7.08
2022-10-28T03:14:13.181Z,6.93
2022-10-28T03:15:11.876Z,6.85
2022-10-28T03:16:08.610Z,6.81
2022-10-28T03:17:05.262Z,6.74
2022-10-28T03:18:01.869Z,6.50
2022-10-28T03:18:58.623Z,6.75
2022-10-28T03:19:55.149Z,6.72
2022-10-28T03:20:55.332Z,6.76
2022-10-28T03:21:54.924Z,6.77
2022-10-28T03:22:51.827Z,6.79
2022-10-28T03:23:48.701Z,6.60
2022-10-28T03:24:45.341Z,6.84
2022-10-28T03:25:41.928Z,6.94
2022-10-28T03:26:38.611Z,7.06
2022-10-28T03:27:35.223Z,7.13
2022-10-28T03:28:31.786Z,7.15
2022-10-28T03:29:28.340Z,7.08
2022-10-28T03:30:24.953Z,7.11
2022-10-28T03:31:21.586Z,7.33
2022-10-28T03:32:18.286Z,7.28
2022-10-28T03:33:14.932Z,7.37
2022-10-28T03:34:11.519Z,7.35
2022-10-28T03:35:08.333Z,7.47
2022-10-28T03:36:05.379Z,7.47
2022-10-28T03:37:01.977Z,7.49
2022-10-28T03:37:58.631Z,7.79
2022-10-28T03:38:55.198Z,7.91
2022-10-28T03:39:51.758Z,8.16
2022-10-28T03:40:49.374Z,8.27
2022-10-28T03:41:46.040Z,7.96
2022-10-28T03:42:42.985Z,7.47
2022-10-28T03:43:39.600Z,7.14
2022-10-28T03:44:36.151Z,7.02
2022-10-28T03:45:32.735Z,7.02
2022-10-28T03:46:31.138Z,7.04
2022-10-28T03:47:30.295Z,6.83
2022-10-28T03:48:26.876Z,6.77
2022-10-28T03:49:23.479Z,6.73
2022-10-28T03:50:20.050Z,6.66
2022-10-28T03:51:16.667Z,6.11
2022-10-28T03:52:13.208Z,6.63
2022-10-28T03:53:10.021Z,6.84
2022-10-28T03:54:06.582Z,6.68
2022-10-28T03:55:03.657Z,6.89
2022-10-28T03:56:01.604Z,6.84
2022-10-28T03:56:58.161Z,6.91
2022-10-28T03:57:55.531Z,6.61
2022-10-28T03:59:53.689Z,6.63
2022-10-28T04:00:54.130Z,6.87
2022-10-28T04:01:50.964Z,6.84
2022-10-28T04:02:52.220Z,6.86
2022-10-28T04:03:48.995Z,6.42
2022-10-28T04:04:45.540Z,6.61
2022-10-28T04:05:42.176Z,6.68
2022-10-28T04:06:38.718Z,6.64
2022-10-28T04:07:35.559Z,6.65
2022-10-28T04:08:32.471Z,6.64
2022-10-28T04:09:29.018Z,6.66
2022-10-28T04:10:25.549Z,6.73
2022-10-28T04:11:22.472Z,6.84
2022-10-28T04:12:19.080Z,6.88
2022-10-28T04:13:16.907Z,6.33
2022-10-28T04:14:13.463Z,6.81
2022-10-28T04:15:10.241Z,6.82
2022-10-28T04:16:07.150Z,6.73
2022-10-28T04:17:03.716Z,6.73
2022-10-28T04:18:00.281Z,6.69
2022-10-28T04:18:56.955Z,6.53
2022-10-28T04:19:53.640Z,6.39
2022-10-28T04:20:50.212Z,6.66
2022-10-28T04:21:46.768Z,6.71
2022-10-28T04:22:43.366Z,6.85
2022-10-28T04:23:39.923Z,6.78
2022-10-28T04:24:36.578Z,6.87
2022-10-28T04:25:33.165Z,6.75
2022-10-28T04:26:31.889Z,6.24
2022-10-28T04:27:28.513Z,6.84
2022-10-28T04:28:25.379Z,6.91
2022-10-28T04:29:22.371Z,6.98
2022-10-28T04:30:19.083Z,6.96
2022-10-28T04:31:15.641Z,6.66
2022-10-28T04:32:12.268Z,7.07
2022-10-28T04:33:12.281Z,7.17
2022-10-28T04:34:08.930Z,7.17
2022-10-28T04:35:05.927Z,7.12
2022-10-28T04:36:02.524Z,6.98
2022-10-28T04:36:59.208Z,6.68
2022-10-28T04:37:56.174Z,6.97
2022-10-28T04:38:53.027Z,6.72
2022-10-28T04:39:49.608Z,7.21
2022-10-28T04:40:49.475Z,6.95
2022-10-28T04:41:46.051Z,6.84
2022-10-28T04:42:42.633Z,6.65
2022-10-28T04:43:39.205Z,6.96
2022-10-28T04:44:35.937Z,7.04
2022-10-28T04:45:32.648Z,7.05
2022-10-28T04:46:29.248Z,7.20
2022-10-28T04:47:25.785Z,7.28
2022-10-28T04:48:22.454Z,7.30
2022-10-28T04:49:19.046Z,7.37
2022-10-28T04:50:15.777Z,7.29
2022-10-28T04:51:12.402Z,7.29
2022-10-28T04:52:10.853Z,7.20
2022-10-28T04:53:10.268Z,7.22
2022-10-28T04:54:07.006Z,7.16
2022-10-28T04:55:03.836Z,7.17
2022-10-28T04:56:00.791Z,7.30
2022-10-28T04:56:57.401Z,7.16
2022-10-28T04:57:58.536Z,7.14
2022-10-28T04:58:55.088Z,7.42
2022-10-28T04:59:51.649Z,7.21
2022-10-28T05:00:48.223Z,7.10
2022-10-28T05:01:44.895Z,7.47
2022-10-28T05:02:45.938Z,7.42
2022-10-28T05:03:42.832Z,6.98
2022-10-28T05:04:39.471Z,7.10
2022-10-28T05:05:36.086Z,7.18
2022-10-28T05:06:32.701Z,7.18
2022-10-28T05:07:29.551Z,7.20
2022-10-28T05:08:26.092Z,7.23
2022-10-28T05:09:22.636Z,7.23
2022-10-28T05:10:19.267Z,6.62
2022-10-28T05:11:15.877Z,6.81
2022-10-28T05:12:12.428Z,6.82
2022-10-28T05:13:08.973Z,6.88
2022-10-28T05:14:05.547Z,6.86
2022-10-28T05:15:02.095Z,6.96
2022-10-28T05:15:58.703Z,7.40
2022-10-28T05:16:55.356Z,7.20
2022-10-28T05:17:53.334Z,7.54
2022-10-28T05:18:50.194Z,7.35
2022-10-28T05:19:46.760Z,7.20
2022-10-28T05:20:44.012Z,7.27
2022-10-28T05:21:40.677Z,7.25
2022-10-28T05:22:38.162Z,7.26
2022-10-28T05:23:35.025Z,7.23
2022-10-28T05:24:31.640Z,7.31
2022-10-28T05:25:28.285Z,7.26
2022-10-28T05:26:24.892Z,7.59
2022-10-28T05:27:21.508Z,7.65
2022-10-28T05:28:19.054Z,7.50
2022-10-28T05:29:15.696Z,7.34
2022-10-28T05:30:12.746Z,7.27
2022-10-28T05:31:10.052Z,7.35
2022-10-28T05:32:06.703Z,7.44
2022-10-28T05:33:04.295Z,7.50
2022-10-28T05:34:00.854Z,7.53
2022-10-28T05:34:57.453Z,7.60
2022-10-28T05:35:54.009Z,7.60
2022-10-28T05:36:50.908Z,7.59
2022-10-28T05:37:47.514Z,7.59
2022-10-28T05:38:45.477Z,7.47
2022-10-28T05:39:42.172Z,7.45
2022-10-28T05:40:38.710Z,7.53
2022-10-28T05:41:38.671Z,7.34
2022-10-28T05:42:41.856Z,7.69
2022-10-28T05:43:38.429Z,7.76
2022-10-28T05:44:34.966Z,7.80
2022-10-28T05:45:31.629Z,7.85
2022-10-28T05:46:28.203Z,7.64
2022-10-28T05:47:24.756Z,7.72
2022-10-28T05:48:21.919Z,7.65
2022-10-28T05:49:20.396Z,7.24
2022-10-28T05:50:19.002Z,7.77
2022-10-28T05:51:15.576Z,7.66
2022-10-28T05:52:12.306Z,8.05
2022-10-28T05:53:08.878Z,7.79
2022-10-28T05:54:05.637Z,8.03
2022-10-28T05:55:02.433Z,7.89
2022-10-28T05:55:58.968Z,8.17
2022-10-28T05:56:55.610Z,8.34
2022-10-28T05:57:53.092Z,8.26
2022-10-28T05:59:51.492Z,8.20
2022-10-28T06:00:48.030Z,8.06
2022-10-28T06:01:44.677Z,8.22
2022-10-28T06:02:42.133Z,8.18
2022-10-28T06:03:38.778Z,8.27
2022-10-28T06:04:35.369Z,8.18
2022-10-28T06:05:32.001Z,8.41
2022-10-28T06:06:29.063Z,8.51
2022-10-28T06:07:25.686Z,8.56
2022-10-28T06:08:22.302Z,8.63
2022-10-28T06:09:18.817Z,8.64
2022-10-28T06:10:15.620Z,8.61
2022-10-28T06:11:11.043Z,8.73
2022-10-28T06:12:07.812Z,8.76
2022-10-28T06:13:04.510Z,8.77
2022-10-28T06:14:01.300Z,8.68
2022-10-28T06:14:58.178Z,8.51
2022-10-28T06:15:55.923Z,9.04
2022-10-28T06:16:52.522Z,9.14
2022-10-28T06:17:49.134Z,9.12
2022-10-28T06:18:45.716Z,8.92
2022-10-28T06:19:42.290Z,9.22
2022-10-28T06:20:38.829Z,9.24
2022-10-28T06:21:35.445Z,9.32
2022-10-28T06:22:32.081Z,9.27
2022-10-28T06:23:28.906Z,9.51
2022-10-28T06:24:25.523Z,9.38
2022-10-28T06:25:23.341Z,9.44
2022-10-28T06:26:19.890Z,9.49
2022-10-28T06:27:16.448Z,9.58
2022-10-28T06:28:13.082Z,9.53
2022-10-28T06:29:10.087Z,9.70
2022-10-28T06:30:07.295Z,9.69
2022-10-28T06:31:06.214Z,9.60
2022-10-28T06:32:02.991Z,9.63
2022-10-28T06:32:59.617Z,9.71
2022-10-28T06:33:56.367Z,9.87
2022-10-28T06:34:52.957Z,9.91
2022-10-28T06:35:49.526Z,9.90
2022-10-28T06:36:46.605Z,9.90
2022-10-28T06:37:43.336Z,9.83
2022-10-28T06:38:39.887Z,9.83
2022-10-28T06:39:39.134Z,9.94
2022-10-28T06:40:35.720Z,9.97
2022-10-28T06:41:33.060Z,10.01
2022-10-28T06:42:29.614Z,9.92
2022-10-28T06:43:26.351Z,10.19
2022-10-28T06:44:22.941Z,10.19
2022-10-28T06:45:19.493Z,10.47
2022-10-28T06:46:16.038Z,10.28
2022-10-28T06:47:14.162Z,10.14
2022-10-28T06:48:11.029Z,10.16
2022-10-28T06:49:09.078Z,10.21
2022-10-28T06:50:07.108Z,10.22
2022-10-28T06:51:03.821Z,10.49
2022-10-28T06:52:00.524Z,10.64
2022-10-28T06:52:58.133Z,10.70
2022-10-28T06:53:54.823Z,10.59
2022-10-28T06:54:51.367Z,10.49
2022-10-28T06:55:58.235Z,10.41
2022-10-28T06:56:54.818Z,10.59
2022-10-28T06:57:51.754Z,10.62
2022-10-28T06:58:53.157Z,10.71
2022-10-28T06:59:50.165Z,10.71
2022-10-28T07:00:46.714Z,10.79
2022-10-28T07:01:43.849Z,10.72
2022-10-28T07:02:44.237Z,10.63
2022-10-28T07:03:41.867Z,11.02
2022-10-28T07:04:38.730Z,11.03
2022-10-28T07:05:35.334Z,11.16
2022-10-28T07:06:31.921Z,11.14
2022-10-28T07:07:28.483Z,11.14
2022-10-28T07:08:25.207Z,11.31
2022-10-28T07:09:21.784Z,11.18
2022-10-28T07:10:18.518Z,11.09
2022-10-28T07:11:15.132Z,10.93
2022-10-28T07:12:11.837Z,11.18
2022-10-28T07:13:08.652Z,11.48
2022-10-28T07:14:05.214Z,11.52
2022-10-28T07:15:01.824Z,11.63
2022-10-28T07:16:00.489Z,11.68
2022-10-28T07:16:57.076Z,11.69
2022-10-28T07:17:58.140Z,11.79
2022-10-28T07:18:54.769Z,11.78
2022-10-28T07:19:51.391Z,11.61
2022-10-28T07:20:48.535Z,11.59
2022-10-28T07:21:48.203Z,11.66
2022-10-28T07:22:44.804Z,11.83
2022-10-28T07:23:41.425Z,11.64
2022-10-28T07:24:38.001Z,11.47
2022-10-28T07:25:34.595Z,11.61
2022-10-28T07:26:31.148Z,11.41
2022-10-28T07:27:27.723Z,11.69
2022-10-28T07:28:26.648Z,11.77
2022-10-28T07:29:23.213Z,11.90
2022-10-28T07:30:19.947Z,11.80
2022-10-28T07:31:16.863Z,11.85
2022-10-28T07:32:13.493Z,12.06
2022-10-28T07:33:10.109Z,11.87
2022-10-28T07:34:06.722Z,11.59
2022-10-28T07:35:03.504Z,11.50
2022-10-28T07:36:04.245Z,11.82
2022-10-28T07:37:01.006Z,11.77
2022-10-28T07:37:58.147Z,11.98
2022-10-28T07:38:55.010Z,12.09
2022-10-28T07:39:51.598Z,12.17
2022-10-28T07:40:48.280Z,12.09
2022-10-28T07:41:45.076Z,12.37
2022-10-28T07:42:41.652Z,12.37
2022-10-28T07:43:38.765Z,12.23
2022-10-28T07:44:35.330Z,12.39
2022-10-28T07:45:32.102Z,12.63
2022-10-28T07:46:28.725Z,12.53
2022-10-28T07:47:25.494Z,12.35
2022-10-28T07:48:22.043Z,12.28
2022-10-28T07:49:18.781Z,12.32
2022-10-28T07:50:15.545Z,12.55
2022-10-28T07:51:15.272Z,12.76
2022-10-28T07:52:11.847Z,12.45
2022-10-28T07:53:08.636Z,12.85
2022-10-28T07:54:05.283Z,13.09
2022-10-28T07:55:03.021Z,12.96
2022-10-28T07:56:02.788Z,12.94
2022-10-28T07:56:59.358Z,12.84
2022-10-28T07:57:56.206Z,12.93
2022-10-28T07:58:53.158Z,12.72
2022-10-28T07:59:49.819Z,13.08
2022-10-28T08:00:46.405Z,13.35
2022-10-28T08:01:43.147Z,13.59
2022-10-28T08:02:40.247Z,13.58
2022-10-28T08:03:38.980Z,13.15
2022-10-28T08:04:35.775Z,13.40
2022-10-28T08:05:32.359Z,13.63
2022-10-28T08:06:28.942Z,13.46
2022-10-28T08:07:26.061Z,13.88
2022-10-28T08:08:23.018Z,13.52
2022-10-28T08:09:19.602Z,13.74
2022-10-28T08:10:16.261Z,13.78
2022-10-28T08:11:19.070Z,13.85
2022-10-28T08:12:16.063Z,13.49
2022-10-28T08:13:12.703Z,13.39
2022-10-28T08:14:09.283Z,13.58
2022-10-28T08:15:06.388Z,13.79
2022-10-28T08:16:02.983Z,13.67
2022-10-28T08:16:59.654Z,14.09
2022-10-28T08:17:57.025Z,14.09
2022-10-28T08:18:53.944Z,13.94
2022-10-28T08:19:50.534Z,13.62
2022-10-28T08:20:47.301Z,13.98
2022-10-28T08:21:43.977Z,14.17
2022-10-28T08:22:40.521Z,14.03
2022-10-28T08:23:38.385Z,13.72
2022-10-28T08:24:34.930Z,13.99
2022-10-28T08:25:31.510Z,13.97
2022-10-28T08:26:28.243Z,14.06
2022-10-28T08:27:24.792Z,14.27
2022-10-28T08:28:21.651Z,14.15
2022-10-28T08:29:18.274Z,14.14
2022-10-28T08:30:14.960Z,14.09
2022-10-28T08:31:12.575Z,14.29
2022-10-28T08:32:09.641Z,14.23
2022-10-28T08:33:06.174Z,14.20
2022-10-28T08:34:02.756Z,14.41
2022-10-28T08:34:59.346Z,14.33
2022-10-28T08:35:55.930Z,14.43
2022-10-28T08:36:52.526Z,14.75
2022-10-28T08:37:52.676Z,14.33
2022-10-28T08:38:49.616Z,14.24
2022-10-28T08:39:46.272Z,14.20
2022-10-28T08:41:00.901Z,14.58
2022-10-28T08:42:23.646Z,15.07
2022-10-28T08:43:57.288Z,15.04
2022-10-28T08:45:16.215Z,14.91
2022-10-28T08:46:28.385Z,14.88
2022-10-28T08:47:30.918Z,14.82
2022-10-28T08:48:27.408Z,14.80
2022-10-28T08:49:24.842Z,14.45
2022-10-28T08:50:24.428Z,14.61
2022-10-28T08:52:04.466Z,14.30
2022-10-28T08:53:07.300Z,14.52
2022-10-28T08:54:12.466Z,14.83
2022-10-28T08:55:24.272Z,14.84
2022-10-28T08:56:46.101Z,14.86
2022-10-28T08:57:55.743Z,14.94
2022-10-28T08:58:54.800Z,14.87
2022-10-28T08:59:54.298Z,15.43
2022-10-28T09:00:56.687Z,14.92
2022-10-28T09:01:56.460Z,15.63
2022-10-28T09:02:59.583Z,16.03
2022-10-28T09:03:56.163Z,15.96
2022-10-28T09:05:05.820Z,15.64
2022-10-28T09:06:05.124Z,15.47
2022-10-28T09:07:03.129Z,15.49
2022-10-28T09:08:02.110Z,15.68
2022-10-28T09:08:59.167Z,15.92
2022-10-28T09:09:56.251Z,15.69
2022-10-28T09:11:11.069Z,15.58
2022-10-28T09:12:40.717Z,15.67
2022-10-28T09:13:40.273Z,15.88
2022-10-28T09:15:12.209Z,15.97
2022-10-28T09:16:25.554Z,15.84
2022-10-28T09:17:37.112Z,15.65
2022-10-28T09:18:33.671Z,15.66
2022-10-28T09:19:43.768Z,15.71
2022-10-28T09:20:40.317Z,16.18
2022-10-28T09:21:43.043Z,16.11
2022-10-28T09:22:59.881Z,16.17
2022-10-28T09:23:58.781Z,16.56
2022-10-28T09:24:56.679Z,16.47
2022-10-28T09:25:56.318Z,16.50
2022-10-28T09:27:42.471Z,16.20
2022-10-28T09:28:57.632Z,16.21
2022-10-28T09:30:03.714Z,16.38
2022-10-28T09:31:41.184Z,16.25
2022-10-28T09:32:52.314Z,16.24
2022-10-28T09:33:54.493Z,16.60
2022-10-28T09:35:05.401Z,16.83
2022-10-28T09:36:04.256Z,16.94
2022-10-28T09:37:11.290Z,16.74
2022-10-28T09:38:16.042Z,16.57
2022-10-28T09:39:25.252Z,16.57
2022-10-28T09:40:28.601Z,16.56
2022-10-28T09:41:31.399Z,16.63
2022-10-28T09:42:32.731Z,16.73
2022-10-28T09:43:37.445Z,17.24
2022-10-28T09:44:46.263Z,16.46
2022-10-28T09:45:47.008Z,16.72
2022-10-28T09:46:47.161Z,16.07
2022-10-28T09:47:48.910Z,16.52
2022-10-28T09:48:49.423Z,16.60
2022-10-28T09:49:48.306Z,16.70
2022-10-28T09:50:45.209Z,16.52
2022-10-28T09:51:49.898Z,16.83
2022-10-28T09:52:59.359Z,16.79
2022-10-28T09:53:58.706Z,16.93
2022-10-28T09:54:58.320Z,17.10
2022-10-28T09:55:56.471Z,16.56
2022-10-28T09:56:53.307Z,16.63
2022-10-28T09:57:49.937Z,16.61
2022-10-28T09:58:48.391Z,16.78
2022-10-28T09:59:45.732Z,16.96
2022-10-28T10:00:42.306Z,17.07
2022-10-28T10:01:41.650Z,16.76
2022-10-28T10:02:40.221Z,17.30
2022-10-28T10:03:39.987Z,17.80
2022-10-28T10:04:37.560Z,17.89
2022-10-28T10:05:40.632Z,17.71
2022-10-28T10:06:39.661Z,17.58
2022-10-28T10:07:44.644Z,17.93
2022-10-28T10:08:42.134Z,17.43
2022-10-28T10:09:39.713Z,17.36
2022-10-28T10:10:46.914Z,17.63
2022-10-28T10:11:48.343Z,17.19
2022-10-28T10:12:47.426Z,17.51
2022-10-28T10:13:47.593Z,17.67
2022-10-28T10:14:49.244Z,17.83
2022-10-28T10:15:52.675Z,17.92
2022-10-28T10:16:54.371Z,18.25
2022-10-28T10:17:51.837Z,18.15
2022-10-28T10:18:53.099Z,17.71
2022-10-28T10:20:34.452Z,17.98
2022-10-28T10:21:50.830Z,18.30
2022-10-28T10:22:49.278Z,17.92
2022-10-28T10:23:45.880Z,18.16
2022-10-28T10:24:45.404Z,18.12
2022-10-28T10:25:43.926Z,18.05
2022-10-28T10:26:40.501Z,18.55
2022-10-28T10:27:37.121Z,18.18
2022-10-28T10:28:36.951Z,17.99
2022-10-28T10:29:34.670Z,17.88
2022-10-28T10:30:49.365Z,18.18
2022-10-28T10:31:47.504Z,18.13
2022-10-28T10:32:47.785Z,18.49
2022-10-28T10:33:50.988Z,18.39
2022-10-28T10:35:15.672Z,18.40
2022-10-28T10:36:17.803Z,18.57
2022-10-28T10:37:21.254Z,17.80
2022-10-28T10:38:17.896Z,18.54
2022-10-28T10:39:23.072Z,18.58
2022-10-28T10:40:31.336Z,18.58
2022-10-28T10:41:36.382Z,18.54
2022-10-28T10:42:39.251Z,18.42
2022-10-28T10:43:43.309Z,18.80
2022-10-28T10:44:39.840Z,18.23
2022-10-28T10:45:36.794Z,18.32
2022-10-28T10:46:33.418Z,18.34
2022-10-28T10:47:30.221Z,18.14
2022-10-28T10:48:27.826Z,18.19
2022-10-28T10:49:24.465Z,17.99
2022-10-28T10:50:29.398Z,17.89
2022-10-28T10:51:30.054Z,17.69
2022-10-28T10:52:28.261Z,18.23
2022-10-28T10:53:30.929Z,18.44
2022-10-28T10:54:31.694Z,18.48
2022-10-28T10:55:35.267Z,18.29
2022-10-28T10:56:33.266Z,18.63
2022-10-28T10:57:30.130Z,18.52
2022-10-28T10:58:31.396Z,18.61
2022-10-28T10:59:31.939Z,18.65
2022-10-28T11:00:44.917Z,18.32
2022-10-28T11:01:41.747Z,18.05
2022-10-28T11:02:39.848Z,18.36
2022-10-28T11:03:47.528Z,18.67
2022-10-28T11:04:52.030Z,18.75
2022-10-28T11:06:05.426Z,18.77
2022-10-28T11:07:16.075Z,18.94
2022-10-28T11:08:28.224Z,18.49
2022-10-28T11:09:42.430Z,18.52
2022-10-28T11:10:39.117Z,18.49
2022-10-28T11:11:40.479Z,18.22
2022-10-28T11:12:37.434Z,18.49
2022-10-28T11:13:35.745Z,18.44
2022-10-28T11:14:35.055Z,18.72
2022-10-28T11:15:33.035Z,18.80
2022-10-28T11:16:29.657Z,19.10
2022-10-28T11:18:47.200Z,19.33
2022-10-28T11:19:43.778Z,18.95
2022-10-28T11:20:54.931Z,19.20
2022-10-28T11:21:56.234Z,18.87
2022-10-28T11:23:20.364Z,18.82
2022-10-28T11:24:39.726Z,19.52
2022-10-28T11:25:40.793Z,18.84
2022-10-28T11:26:45.088Z,19.11
2022-10-28T11:27:58.801Z,19.04
2022-10-28T11:29:11.656Z,19.08
2022-10-28T11:30:15.856Z,19.01
2022-10-28T11:31:50.812Z,18.55
2022-10-28T11:33:30.439Z,19.24
2022-10-28T11:34:27.405Z,18.99
2022-10-28T11:35:29.747Z,18.97
2022-10-28T11:36:51.920Z,18.22
2022-10-28T11:38:17.725Z,18.44
2022-10-28T11:39:21.407Z,18.76
2022-10-28T11:40:25.473Z,18.83
2022-10-28T11:41:52.751Z,18.50
2022-10-28T11:43:04.557Z,18.78
2022-10-28T11:44:05.457Z,19.01
2022-10-28T11:45:35.402Z,19.15
2022-10-28T11:46:50.759Z,19.18
2022-10-28T11:48:09.240Z,19.19
2022-10-28T11:49:15.005Z,19.06
2022-10-28T11:50:26.456Z,19.51
2022-10-28T11:51:38.206Z,19.52
2022-10-28T11:52:49.967Z,19.69
2022-10-28T11:54:04.324Z,19.17
2022-10-28T11:55:22.149Z,19.07
2022-10-28T11:56:32.532Z,19.17
2022-10-28T11:57:48.720Z,19.22
2022-10-28T11:59:12.332Z,19.35
2022-10-28T12:00:25.269Z,19.67
2022-10-28T12:01:48.256Z,19.52
2022-10-28T12:03:20.811Z,18.85
2022-10-28T12:04:19.305Z,19.30
2022-10-28T12:05:37.816Z,19.58
2022-10-28T12:07:03.187Z,19.38
2022-10-28T12:08:21.056Z,19.46
2022-10-28T12:09:32.660Z,19.66
2022-10-28T12:10:29.216Z,19.33
2022-10-28T12:11:50.448Z,19.09
2022-10-28T12:13:08.441Z,19.57
2022-10-28T12:14:14.137Z,19.14
2022-10-28T12:15:41.294Z,19.31
2022-10-28T12:16:48.909Z,19.15
2022-10-28T12:18:06.943Z,19.43
2022-10-28T12:19:28.308Z,19.38
2022-10-28T12:20:36.762Z,19.84
2022-10-28T12:21:38.507Z,20.16
2022-10-28T12:22:48.801Z,19.90
2022-10-28T12:23:47.684Z,19.37
2022-10-28T12:24:46.442Z,19.39
2022-10-28T12:25:46.640Z,19.24
2022-10-28T12:26:53.864Z,19.40
2022-10-28T12:27:55.301Z,19.48
2022-10-28T12:28:55.447Z,18.99
2022-10-28T12:29:58.306Z,19.25
2022-10-28T12:30:56.911Z,19.15
2022-10-28T12:32:17.979Z,19.74
2022-10-28T12:33:42.160Z,19.91
2022-10-28T12:34:47.621Z,19.83
2022-10-28T12:36:06.882Z,20.08
2022-10-28T12:37:11.585Z,19.40
2022-10-28T12:38:10.956Z,19.41
2022-10-28T12:39:18.043Z,19.63
2022-10-28T12:40:18.269Z,19.60
2022-10-28T12:41:23.696Z,19.10
2022-10-28T12:42:32.046Z,19.29
2022-10-28T12:43:40.517Z,19.62
2022-10-28T12:44:38.701Z,19.31
2022-10-28T12:45:35.984Z,19.16
2022-10-28T12:47:05.571Z,19.57
2022-10-28T12:48:11.893Z,19.55
2022-10-28T12:49:24.027Z,19.16
2022-10-28T12:51:08.721Z,19.48
2022-10-28T12:52:19.589Z,19.34
2022-10-28T12:53:19.206Z,19.17
2022-10-28T12:54:53.664Z,19.21
2022-10-28T12:56:17.326Z,19.32
2022-10-28T12:57:17.182Z,19.12
2022-10-28T12:58:24.035Z,19.35
2022-10-28T12:59:30.760Z,19.29
2022-10-28T13:00:35.550Z,19.11
2022-10-28T13:01:34.671Z,19.53
2022-10-28T13:02:39.441Z,19.52
2022-10-28T13:03:36.499Z,19.21
2022-10-28T13:04:33.185Z,19.07
2022-10-28T13:05:42.249Z,18.88
2022-10-28T13:06:57.392Z,19.60
2022-10-28T13:08:12.922Z,19.64
2022-10-28T13:09:33.269Z,19.47
2022-10-28T13:10:44.856Z,19.09
2022-10-28T13:12:23.144Z,19.64
2022-10-28T13:14:00.980Z,19.07
2022-10-28T13:15:03.371Z,19.13
2022-10-28T13:16:10.533Z,19.02
2022-10-28T13:17:55.193Z,19.25
2022-10-28T13:18:54.602Z,19.64
2022-10-28T13:20:03.802Z,19.57
2022-10-28T13:21:31.052Z,19.60
2022-10-28T13:23:02.481Z,19.31
2022-10-28T13:24:17.552Z,19.03
2022-10-28T13:25:29.146Z,19.33
2022-10-28T13:26:31.104Z,19.31
2022-10-28T13:27:28.267Z,18.92
2022-10-28T13:28:30.545Z,18.55
2022-10-28T13:29:31.082Z,18.80
2022-10-28T13:30:32.129Z,18.85
2022-10-28T13:31:40.753Z,19.14
2022-10-28T13:32:40.405Z,19.05
2022-10-28T13:33:39.137Z,19.09
2022-10-28T13:34:40.197Z,19.37
2022-10-28T13:35:37.155Z,18.87
2022-10-28T13:36:41.063Z,19.01
2022-10-28T13:37:39.659Z,18.74